createdAt,value
2023-09-06T00:01:14.273Z,4.83
2023-09-06T00:16:18.190Z,5.40
2023-09-06T00:31:20.502Z,5.27
2023-09-06T00:46:23.938Z,5.67
2023-09-06T01:01:26.131Z,5.20
2023-09-06T01:16:35.199Z,5.47
2023-09-06T01:31:37.417Z,6.10
2023-09-06T01:46:39.726Z,5.33
2023-09-06T02:01:42.258Z,5.67
2023-09-06T02:16:44.285Z,6.20
2023-09-06T02:31:46.993Z,6.13
2023-09-06T02:46:53.767Z,5.87
2023-09-06T03:01:56.203Z,6.10
2023-09-06T03:17:01.147Z,5.97
2023-09-06T03:32:03.859Z,6.07
2023-09-06T03:47:14.641Z,6.30
2023-09-06T04:02:16.996Z,5.90
2023-09-06T04:17:18.923Z,6.90
2023-09-06T04:32:21.373Z,6.43
2023-09-06T04:47:23.338Z,6.43
2023-09-06T05:02:25.576Z,7.10
2023-09-06T05:17:27.659Z,6.53
2023-09-06T05:32:29.870Z,6.37
2023-09-06T05:47:32.168Z,6.20
2023-09-06T06:02:34.464Z,6.47
2023-09-06T06:17:37.386Z,6.00
2023-09-06T06:32:39.715Z,6.63
2023-09-06T06:47:41.976Z,5.47
2023-09-06T07:02:44.326Z,5.53
2023-09-06T07:17:47.176Z,5.20
2023-09-06T07:32:49.172Z,5.10
2023-09-06T07:47:52.875Z,5.57
2023-09-06T08:02:55.997Z,5.83
2023-09-06T08:17:58.291Z,5.53
2023-09-06T08:33:00.647Z,5.27
2023-09-06T08:48:03.167Z,5.47
2023-09-06T09:03:05.554Z,5.00
2023-09-06T09:18:14.620Z,6.17
2023-09-06T09:33:16.874Z,5.93
2023-09-06T09:48:21.755Z,6.57
2023-09-06T10:03:24.558Z,6.63
2023-09-06T10:18:27.255Z,6.35
2023-09-06T10:33:34.831Z,6.70
2023-09-06T10:48:37.201Z,6.60
2023-09-06T11:03:39.492Z,7.32
2023-09-06T11:18:48.434Z,6.70
2023-09-06T11:33:57.345Z,7.30
2023-09-06T11:49:00.328Z,6.65
2023-09-06T12:04:04.143Z,6.40
2023-09-06T12:19:06.413Z,6.28
2023-09-06T12:34:08.580Z,6.68
2023-09-06T12:49:10.625Z,6.15
2023-09-06T13:04:12.765Z,6.57
2023-09-06T13:19:16.235Z,6.25
2023-09-06T13:34:18.629Z,6.18
2023-09-06T13:49:20.636Z,6.97
2023-09-06T14:04:22.839Z,6.88
2023-09-06T14:19:26.333Z,7.00
2023-09-06T14:34:28.680Z,8.05
2023-09-06T14:49:30.765Z,7.20
2023-09-06T15:04:32.986Z,7.63
2023-09-06T15:19:35.104Z,7.28
2023-09-06T15:34:37.745Z,7.65
2023-09-06T15:49:39.617Z,9.00
2023-09-06T16:04:41.784Z,7.93
2023-09-06T16:19:43.923Z,8.35
2023-09-06T16:34:45.966Z,7.93
2023-09-06T16:49:49.942Z,8.30
2023-09-06T17:04:52.114Z,7.63
2023-09-06T17:19:54.071Z,8.80
2023-09-06T17:34:56.774Z,8.07
2023-09-06T17:49:58.932Z,8.05
2023-09-06T18:05:01.600Z,8.40
2023-09-06T18:20:03.979Z,8.70
2023-09-06T18:35:09.786Z,11.07
2023-09-06T18:50:16.816Z,9.53
2023-09-06T19:05:19.554Z,8.97
2023-09-06T19:20:21.590Z,8.40
2023-09-06T19:35:23.821Z,8.47
2023-09-06T19:50:28.564Z,7.83
2023-09-06T20:05:32.862Z,9.00
2023-09-06T20:20:38.672Z,8.63
2023-09-06T20:35:43.858Z,7.70
2023-09-06T20:50:54.449Z,7.90
2023-09-06T21:06:00.692Z,8.07
2023-09-06T21:21:02.991Z,8.57
2023-09-06T21:36:05.606Z,8.80
2023-09-06T21:51:19.064Z,10.40
2023-09-06T22:06:20.959Z,9.87
2023-09-06T22:21:22.869Z,8.37
2023-09-06T22:36:25.909Z,9.53
2023-09-06T22:51:28.480Z,9.20
2023-09-06T23:06:30.598Z,8.40
2023-09-06T23:21:39.225Z,7.73
2023-09-06T23:36:41.457Z,8.20
2023-09-06T23:51:43.855Z,7.40
